Time;durP1;ratioP1;P1;durP2;ratioP2;P2;SDS_P1;SDS_P2;PMS_P1;PMS_P2;Temp;Humidity;BMP_temperature;BMP_pressure;BME280_temperature;BME280_humidity;BME280_pressure;Samples;Min_cycle;Max_cycle;Signal;HPM_P1;HPM_P2
2024/04/06 00:01:43;;;;;;;;;;;;;;;19.82;44.78;98606.95;67928;1275;1016269;-65
2024/04/06 00:04:45;;;;;;;;;;;;;;;19.95;44.51;98602.69;67980;1275;1016516;-65
2024/04/06 00:07:49;;;;;;;;;;;;;;;19.94;44.73;98598.49;68002;1275;1016314;-65
2024/04/06 00:10:52;;;;;;;;;;;;;;;20.17;44.54;98597.52;68009;1275;1017092;-64
2024/04/06 00:13:55;;;;;;;;;;;;;;;20.06;44.94;98602.73;68068;1275;1016157;-64
2024/04/06 00:16:58;;;;;;;;;;;;;;;20.24;44.96;98601.27;68020;1275;1016264;-65
2024/04/06 00:20:03;;;;;;;;;;;;;;;20.27;45.20;98604.45;68032;1275;1017492;-65
2024/04/06 00:23:06;;;;;;;;;;;;;;;20.47;45.20;98605.20;68042;1275;1016426;-65
2024/04/06 00:26:08;;;;;;;;;;;;;;;20.56;45.41;98602.35;68033;1275;1016273;-64
2024/04/06 00:29:11;;;;;;;;;;;;;;;20.59;45.81;98596.69;68044;1275;1018144;-65
2024/04/06 00:32:15;;;;;;;;;;;;;;;20.58;46.22;98594.34;68028;1275;1016468;-65
2024/04/06 00:35:18;;;;;;;;;;;;;;;20.48;46.67;98594.52;67990;1275;1016047;-65
2024/04/06 00:38:20;;;;;;;;;;;;;;;20.54;46.88;98590.88;68010;1275;1016488;-65
2024/04/06 00:41:23;;;;;;;;;;;;;;;20.70;46.59;98597.73;67991;1275;1016786;-65
2024/04/06 00:44:28;;;;;;;;;;;;;;;20.71;46.65;98596.16;68038;1275;1015976;-65
2024/04/06 00:47:34;;;;;;;;;;;;;;;20.70;46.88;98592.86;68035;1275;1016464;-64
2024/04/06 00:50:37;;;;;;;;;;;;;;;20.72;47.14;98601.39;68004;1275;1015897;-65
2024/04/06 00:53:40;;;;;;;;;;;;;;;20.73;47.05;98612.33;68045;1275;1016754;-65
2024/04/06 00:56:48;;;;;;;;;;;;;;;20.77;47.11;98606.86;68052;1275;1016518;-65
2024/04/06 00:59:51;;;;;;;;;;;;;;;20.81;47.35;98607.36;68032;1275;1018894;-64
2024/04/06 01:02:54;;;;;;;;;;;;;;;20.86;47.65;98607.02;68051;1275;1016457;-64
2024/04/06 01:05:56;;;;;;;;;;;;;;;20.91;49.33;98601.98;68054;1275;1016139;-65
2024/04/06 01:08:59;;;;;;;;;;;;;;;20.81;50.36;98602.91;68025;1275;1016405;-65
2024/04/06 01:12:02;;;;;;;;;;;;;;;20.84;50.89;98599.71;67963;1275;1016154;-65
2024/04/06 01:15:05;;;;;;;;;;;;;;;20.85;51.77;98601.76;67998;1275;1016409;-65
2024/04/06 01:18:07;;;;;;;;;;;;;;;20.81;52.09;98589.60;68020;1275;1016145;-65
2024/04/06 01:21:10;;;;;;;;;;;;;;;20.95;51.44;98583.04;68067;1275;1016840;-65
2024/04/06 01:24:13;;;;;;;;;;;;;;;20.92;51.53;98584.52;68031;1275;1018156;-64
2024/04/06 01:27:15;;;;;;;;;;;;;;;20.84;51.95;98581.65;67986;1275;1017508;-65
2024/04/06 01:30:17;;;;;;;;;;;;;;;21.01;51.36;98582.83;68048;1275;1016456;-64
2024/04/06 01:33:20;;;;;;;;;;;;;;;21.21;50.47;98582.95;68031;1275;1016645;-64
2024/04/06 01:36:23;;;;;;;;;;;;;;;21.24;50.37;98587.12;67994;1275;1015908;-65
2024/04/06 01:39:25;;;;;;;;;;;;;;;21.29;50.18;98596.65;68029;1275;1016062;-64
2024/04/06 01:42:28;;;;;;;;;;;;;;;21.20;50.67;98615.33;68068;1275;1016368;-64
2024/04/06 01:45:30;;;;;;;;;;;;;;;21.17;50.79;98623.63;68018;1275;1016479;-63
2024/04/06 01:48:34;;;;;;;;;;;;;;;21.22;50.95;98648.48;68043;1275;1016636;-65
2024/04/06 01:51:36;;;;;;;;;;;;;;;20.90;51.62;98665.73;67896;1275;1016468;-64
2024/04/06 01:54:39;;;;;;;;;;;;;;;20.75;51.93;98667.70;68001;1275;1015982;-64
2024/04/06 01:57:41;;;;;;;;;;;;;;;20.92;51.55;98678.02;67992;1275;1016396;-65
2024/04/06 02:00:44;;;;;;;;;;;;;;;20.96;51.45;98672.98;68063;1275;1016225;-64
2024/04/06 02:03:46;;;;;;;;;;;;;;;20.96;51.18;98662.30;68057;1275;1016360;-65
2024/04/06 02:06:48;;;;;;;;;;;;;;;20.94;51.36;98659.14;68030;1275;1016281;-64
2024/04/06 02:09:50;;;;;;;;;;;;;;;20.86;51.68;98650.42;68024;1273;1016376;-65
2024/04/06 02:12:54;;;;;;;;;;;;;;;20.84;51.86;98655.05;68010;1275;1016118;-64
2024/04/06 02:15:57;;;;;;;;;;;;;;;20.99;51.37;98650.77;68049;1275;1016459;-65
2024/04/06 02:19:00;;;;;;;;;;;;;;;20.85;51.66;98661.83;68027;1275;1018875;-64
2024/04/06 02:22:03;;;;;;;;;;;;;;;20.75;51.99;98663.74;68002;1275;1016477;-65
2024/04/06 02:25:07;;;;;;;;;;;;;;;20.46;52.95;98669.80;67975;1275;1016371;-64
2024/04/06 02:28:10;;;;;;;;;;;;;;;20.71;52.00;98674.27;68009;1275;1016424;-65
2024/04/06 02:31:13;;;;;;;;;;;;;;;20.78;51.68;98671.61;67969;1275;1016091;-64
2024/04/06 02:34:15;;;;;;;;;;;;;;;20.62;52.02;98671.52;68052;1275;1016290;-65
2024/04/06 02:37:18;;;;;;;;;;;;;;;20.50;52.51;98675.45;68071;1275;1018202;-65
2024/04/06 02:40:20;;;;;;;;;;;;;;;20.53;52.39;98687.21;68007;1275;1016047;-65
2024/04/06 02:43:23;;;;;;;;;;;;;;;20.57;52.38;98694.05;67976;1275;1016547;-62
2024/04/06 02:46:25;;;;;;;;;;;;;;;20.42;52.59;98704.88;67990;1275;1016382;-65
2024/04/06 02:49:28;;;;;;;;;;;;;;;20.32;53.03;98711.56;68067;1275;1018051;-65
2024/04/06 02:52:31;;;;;;;;;;;;;;;20.24;53.19;98712.91;68026;1275;1015907;-64
2024/04/06 02:55:33;;;;;;;;;;;;;;;20.15;53.35;98712.23;67990;1275;1016321;-64
2024/04/06 02:58:36;;;;;;;;;;;;;;;20.11;53.45;98717.99;68052;1275;1016225;-66
2024/04/06 03:01:39;;;;;;;;;;;;;;;20.03;53.56;98719.85;68040;1275;1016552;-65
2024/04/06 03:04:42;;;;;;;;;;;;;;;20.00;53.50;98718.16;68003;1275;1016399;-64
2024/04/06 03:07:45;;;;;;;;;;;;;;;19.97;53.64;98720.67;67990;1275;1016735;-65
2024/04/06 03:10:48;;;;;;;;;;;;;;;19.96;53.22;98722.52;68007;1275;1016178;-64
2024/04/06 03:13:50;;;;;;;;;;;;;;;19.98;53.05;98724.81;68055;1275;1016411;-64
2024/04/06 03:16:53;;;;;;;;;;;;;;;20.13;52.54;98720.77;68049;1275;1016461;-65
2024/04/06 03:19:56;;;;;;;;;;;;;;;20.20;52.46;98723.81;68045;1275;1016234;-65
2024/04/06 03:23:01;;;;;;;;;;;;;;;20.19;52.10;98731.70;67999;1275;1016383;-65
2024/04/06 03:26:03;;;;;;;;;;;;;;;20.15;51.99;98736.05;67989;1275;1016332;-64
2024/04/06 03:29:06;;;;;;;;;;;;;;;20.03;51.62;98745.04;68072;1275;1016451;-65
2024/04/06 03:32:08;;;;;;;;;;;;;;;20.02;51.11;98757.94;68021;1275;1016545;-64
2024/04/06 03:35:12;;;;;;;;;;;;;;;19.41;52.29;98766.45;68009;1275;1016284;-65
2024/04/06 03:38:15;;;;;;;;;;;;;;;19.37;52.34;98766.31;68027;1275;1016442;-65
2024/04/06 03:41:17;;;;;;;;;;;;;;;19.31;52.00;98772.27;68004;1275;1016430;-65
2024/04/06 03:44:20;;;;;;;;;;;;;;;19.22;51.85;98776.96;68033;1275;1016281;-65
2024/04/06 03:47:22;;;;;;;;;;;;;;;19.24;51.45;98774.23;68033;1275;1016455;-65
2024/04/06 03:50:25;;;;;;;;;;;;;;;19.28;51.42;98774.86;68057;1275;1016241;-65
2024/04/06 03:53:27;;;;;;;;;;;;;;;19.26;51.42;98779.80;68016;1275;1016467;-64
2024/04/06 03:56:29;;;;;;;;;;;;;;;19.20;51.44;98784.48;68008;1275;1016495;-65
2024/04/06 03:59:35;;;;;;;;;;;;;;;19.10;51.52;98787.18;67998;1275;1016582;-64
2024/04/06 04:02:38;;;;;;;;;;;;;;;19.19;51.25;98791.15;68007;1275;1016322;-65
2024/04/06 04:05:41;;;;;;;;;;;;;;;19.04;51.55;98798.23;68058;1275;1016414;-65
2024/04/06 04:08:46;;;;;;;;;;;;;;;19.06;51.43;98795.77;67996;1275;1016092;-65
2024/04/06 04:11:52;;;;;;;;;;;;;;;19.05;51.42;98793.92;68003;1275;1016361;-64
2024/04/06 04:14:55;;;;;;;;;;;;;;;19.03;51.37;98798.50;68038;1275;1016419;-64
2024/04/06 04:17:58;;;;;;;;;;;;;;;19.01;51.31;98806.45;68002;1275;1016471;-65
2024/04/06 04:21:02;;;;;;;;;;;;;;;19.07;51.24;98809.08;68023;1275;1016436;-65
2024/04/06 04:24:04;;;;;;;;;;;;;;;19.07;51.19;98817.21;68027;1275;1015776;-65
2024/04/06 04:27:07;;;;;;;;;;;;;;;19.08;51.34;98821.08;68049;1275;1018168;-65
2024/04/06 04:30:11;;;;;;;;;;;;;;;19.10;51.29;98824.45;67969;1275;1017279;-65
2024/04/06 04:33:14;;;;;;;;;;;;;;;19.09;51.45;98827.34;67997;1275;1016300;-64
2024/04/06 04:36:18;;;;;;;;;;;;;;;19.02;51.85;98836.89;68044;1275;1016268;-65
2024/04/06 04:39:20;;;;;;;;;;;;;;;18.93;52.11;98835.42;67997;1275;1016460;-64
2024/04/06 04:42:23;;;;;;;;;;;;;;;18.88;52.33;98837.30;68054;1275;1015787;-65
2024/04/06 04:45:26;;;;;;;;;;;;;;;18.96;52.17;98841.40;67917;1275;1016563;-64
2024/04/06 04:48:29;;;;;;;;;;;;;;;18.95;52.39;98851.91;68068;1275;1018661;-65
2024/04/06 04:51:31;;;;;;;;;;;;;;;18.95;52.37;98856.11;68027;1275;1016422;-64
2024/04/06 04:54:33;;;;;;;;;;;;;;;19.02;52.28;98859.58;68016;1275;1016494;-65
2024/04/06 04:57:36;;;;;;;;;;;;;;;19.04;52.29;98856.91;68052;1275;1015950;-65
2024/04/06 05:00:39;;;;;;;;;;;;;;;19.12;52.03;98853.85;67978;1275;1016644;-65
2024/04/06 05:03:42;;;;;;;;;;;;;;;19.14;52.19;98859.98;68016;1275;1016399;-64
2024/04/06 05:06:44;;;;;;;;;;;;;;;19.14;52.24;98869.27;67957;1275;1015886;-65
2024/04/06 05:09:47;;;;;;;;;;;;;;;19.16;52.16;98880.19;68016;1275;1016160;-64
2024/04/06 05:12:50;;;;;;;;;;;;;;;19.18;52.19;98880.20;68057;1275;1016761;-65
2024/04/06 05:15:53;;;;;;;;;;;;;;;19.22;52.16;98880.73;67972;1275;1016945;-64
2024/04/06 05:18:55;;;;;;;;;;;;;;;19.71;50.79;98888.95;68033;1275;1016443;-65
2024/04/06 05:21:58;;;;;;;;;;;;;;;19.29;51.75;98891.92;68002;1275;1016611;-65
2024/04/06 05:25:01;;;;;;;;;;;;;;;19.20;52.22;98895.95;68037;1275;1016257;-64
2024/04/06 05:28:03;;;;;;;;;;;;;;;19.26;52.20;98895.75;68075;1275;1016616;-65
2024/04/06 05:31:06;;;;;;;;;;;;;;;19.30;52.37;98898.04;68058;1275;1016374;-65
2024/04/06 05:34:11;;;;;;;;;;;;;;;19.31;52.37;98904.59;68076;1275;1019364;-64
2024/04/06 05:37:14;;;;;;;;;;;;;;;19.35;52.33;98909.00;67981;1275;1016178;-64
2024/04/06 05:40:17;;;;;;;;;;;;;;;19.24;52.83;98908.16;68053;1275;1019029;-65
2024/04/06 05:43:19;;;;;;;;;;;;;;;19.29;52.76;98914.41;68065;1275;1016765;-64
2024/04/06 05:46:22;;;;;;;;;;;;;;;19.25;53.10;98912.30;68007;1275;1016055;-65
2024/04/06 05:49:25;;;;;;;;;;;;;;;19.17;53.34;98914.96;68055;1275;1016403;-65
2024/04/06 05:52:28;;;;;;;;;;;;;;;19.27;53.18;98912.68;68020;1275;1016317;-64
2024/04/06 05:55:31;;;;;;;;;;;;;;;19.54;52.46;98919.67;68007;1275;1016495;-64
2024/04/06 05:58:33;;;;;;;;;;;;;;;19.95;51.21;98921.54;68076;1275;1018626;-64
2024/04/06 06:01:36;;;;;;;;;;;;;;;19.73;51.63;98929.83;68053;1275;1018147;-65
2024/04/06 06:04:39;;;;;;;;;;;;;;;19.81;51.64;98936.38;65463;1275;5392236;-66
2024/04/06 06:07:42;;;;;;;;;;;;;;;19.85;51.49;98934.21;68031;1275;1016468;-64
2024/04/06 06:10:45;;;;;;;;;;;;;;;20.02;51.31;98939.33;67994;1275;1016831;-65
2024/04/06 06:13:47;;;;;;;;;;;;;;;19.93;51.49;98944.59;68058;1275;1016502;-65
2024/04/06 06:16:50;;;;;;;;;;;;;;;20.05;51.36;98947.02;67982;1275;1016448;-65
2024/04/06 06:19:53;;;;;;;;;;;;;;;19.84;52.17;98955.59;68027;1275;1016507;-64
2024/04/06 06:22:55;;;;;;;;;;;;;;;20.15;51.53;98952.07;68082;1275;1016120;-65
2024/04/06 06:25:59;;;;;;;;;;;;;;;20.19;51.39;98955.27;67991;1275;1016400;-64
2024/04/06 06:29:02;;;;;;;;;;;;;;;20.29;51.42;98951.73;68048;1275;1015966;-64
2024/04/06 06:32:05;;;;;;;;;;;;;;;20.30;51.44;98952.70;68014;1275;1016726;-65
2024/04/06 06:35:08;;;;;;;;;;;;;;;20.12;52.09;98955.30;67925;1275;1016638;-63
2024/04/06 06:38:11;;;;;;;;;;;;;;;20.07;52.34;98954.62;68012;1275;1016028;-65
2024/04/06 06:41:14;;;;;;;;;;;;;;;20.09;52.63;98956.89;68047;1275;1016430;-65
2024/04/06 06:44:17;;;;;;;;;;;;;;;19.97;52.94;98962.00;67990;1275;1016479;-64
2024/04/06 06:47:20;;;;;;;;;;;;;;;20.02;53.03;98959.55;67960;1275;1016257;-65
2024/04/06 06:50:23;;;;;;;;;;;;;;;20.11;52.79;98952.65;68002;1275;1016407;-64
2024/04/06 06:53:25;;;;;;;;;;;;;;;20.24;53.00;98954.54;68021;1275;1016603;-64
2024/04/06 06:56:28;;;;;;;;;;;;;;;20.34;52.68;98965.27;68060;1275;1016181;-65
2024/04/06 06:59:31;;;;;;;;;;;;;;;20.45;52.80;98968.05;67939;1275;1016649;-64
2024/04/06 07:02:33;;;;;;;;;;;;;;;20.49;53.08;98967.52;68018;1275;1017799;-64
2024/04/06 07:05:36;;;;;;;;;;;;;;;20.48;52.74;98969.56;68031;1275;1016522;-65
2024/04/06 07:08:38;;;;;;;;;;;;;;;20.41;52.68;98977.04;68051;1275;1016424;-65
2024/04/06 07:11:41;;;;;;;;;;;;;;;20.27;53.43;98991.92;67956;1275;1016392;-64
2024/04/06 07:14:44;;;;;;;;;;;;;;;20.22;53.55;98998.39;68041;1275;1016261;-64
2024/04/06 07:17:48;;;;;;;;;;;;;;;20.23;53.70;98993.38;68052;1275;1019898;-65
2024/04/06 07:20:51;;;;;;;;;;;;;;;20.22;53.95;98995.41;68049;1275;1016452;-65
2024/04/06 07:23:53;;;;;;;;;;;;;;;20.21;54.22;99003.31;67974;1275;1016177;-65
2024/04/06 07:26:56;;;;;;;;;;;;;;;20.36;54.37;98999.16;68042;1275;1016405;-66
2024/04/06 07:29:58;;;;;;;;;;;;;;;20.44;53.83;98997.64;67988;1275;1016242;-65
2024/04/06 07:33:01;;;;;;;;;;;;;;;20.60;54.21;98997.20;67966;1275;1017010;-65
2024/04/06 07:36:04;;;;;;;;;;;;;;;20.68;53.22;98992.33;68020;1275;1016459;-65
2024/04/06 07:39:07;;;;;;;;;;;;;;;20.74;53.37;98996.48;68011;1275;1016447;-63
2024/04/06 07:42:10;;;;;;;;;;;;;;;20.71;53.03;98999.66;67941;1275;1016356;-64
2024/04/06 07:45:12;;;;;;;;;;;;;;;21.06;52.71;98994.85;67981;1275;1016273;-65
2024/04/06 07:48:14;;;;;;;;;;;;;;;21.26;52.12;98991.81;67949;1275;1017211;-65
2024/04/06 07:51:32;;;;;;;;;;;;;;;;;;;;;
2024/04/06 07:54:44;;;;;;;;;;;;;;;21.47;51.62;98987.27;67918;1275;1016139;-65
2024/04/06 07:57:47;;;;;;;;;;;;;;;21.71;51.92;98985.17;67918;1275;1016332;-64
2024/04/06 08:00:51;;;;;;;;;;;;;;;21.92;49.91;98991.71;68014;1275;1018443;-64
2024/04/06 08:03:54;;;;;;;;;;;;;;;21.98;49.76;98994.80;68005;1275;1016851;-65
2024/04/06 08:06:56;;;;;;;;;;;;;;;22.12;50.38;98996.20;67991;1275;1016354;-64
2024/04/06 08:10:19;;;;;;;;;;;;;;;22.12;49.17;98996.02;67903;1275;1016116;-65
2024/04/06 08:13:22;;;;;;;;;;;;;;;22.07;49.55;98994.98;68029;1275;1016490;-65
2024/04/06 08:16:24;;;;;;;;;;;;;;;22.28;49.95;98991.96;68037;1275;1016332;-65
2024/04/06 08:19:26;;;;;;;;;;;;;;;22.31;48.12;98996.17;68011;1275;1015744;-65
2024/04/06 08:22:29;;;;;;;;;;;;;;;22.16;47.97;98998.95;68006;1275;1016635;-65
2024/04/06 08:25:31;;;;;;;;;;;;;;;22.66;48.16;98994.56;67960;1275;1016424;-65
2024/04/06 08:28:33;;;;;;;;;;;;;;;22.94;47.05;98988.27;68001;1275;1016610;-64
2024/04/06 08:31:36;;;;;;;;;;;;;;;23.04;46.26;98991.30;67976;1275;1016435;-65
2024/04/06 08:34:38;;;;;;;;;;;;;;;23.29;46.34;98987.97;67979;1275;1017980;-65
2024/04/06 08:37:41;;;;;;;;;;;;;;;23.18;45.23;98988.02;68032;1275;1016098;-64
2024/04/06 08:40:43;;;;;;;;;;;;;;;23.07;45.52;98987.20;67993;1275;1016345;-64
2024/04/06 08:43:46;;;;;;;;;;;;;;;23.00;45.00;98988.13;67975;1275;1016161;-62
2024/04/06 08:46:49;;;;;;;;;;;;;;;23.10;45.74;98978.50;67969;1275;1016314;-64
2024/04/06 08:49:51;;;;;;;;;;;;;;;23.30;44.54;98981.08;68017;1275;1018061;-65
2024/04/06 08:52:54;;;;;;;;;;;;;;;23.15;44.06;98983.17;67971;1275;1016085;-64
2024/04/06 08:55:56;;;;;;;;;;;;;;;23.09;43.76;98990.43;67982;1275;1016463;-65
2024/04/06 08:59:01;;;;;;;;;;;;;;;23.14;43.78;98995.05;67951;1275;1016466;-65
2024/04/06 09:02:04;;;;;;;;;;;;;;;23.18;44.04;99003.95;67994;1275;1016415;-65
2024/04/06 09:05:07;;;;;;;;;;;;;;;23.39;43.69;99000.61;67960;1275;1016472;-65
2024/04/06 09:08:10;;;;;;;;;;;;;;;23.68;43.35;98993.25;67964;1275;1016459;-65
2024/04/06 09:11:13;;;;;;;;;;;;;;;23.65;42.68;99000.25;67989;1275;1016542;-64
2024/04/06 09:14:15;;;;;;;;;;;;;;;23.41;42.42;98995.93;68033;1275;1018612;-65
2024/04/06 09:17:18;;;;;;;;;;;;;;;23.46;42.85;98986.41;68029;1275;1016512;-64
2024/04/06 09:20:20;;;;;;;;;;;;;;;23.37;42.06;98992.90;67988;1275;1016415;-64
2024/04/06 09:23:23;;;;;;;;;;;;;;;23.48;42.95;98991.29;67988;1275;1017928;-64
2024/04/06 09:26:30;;;;;;;;;;;;;;;23.37;42.21;99001.02;68053;1275;1016455;-64
2024/04/06 09:29:33;;;;;;;;;;;;;;;23.39;42.37;99000.81;67938;1275;1016152;-64
2024/04/06 09:32:35;;;;;;;;;;;;;;;23.55;42.63;99007.02;67938;1275;1016377;-64
2024/04/06 09:35:38;;;;;;;;;;;;;;;23.63;41.58;99009.37;68036;1275;1018734;-66
2024/04/06 09:38:41;;;;;;;;;;;;;;;23.76;41.16;99016.64;68001;1275;1016469;-64
2024/04/06 09:41:43;;;;;;;;;;;;;;;23.75;42.15;99011.36;68049;1275;1016513;-65
2024/04/06 09:44:45;;;;;;;;;;;;;;;24.19;42.14;99007.55;68038;1275;1016491;-66
2024/04/06 09:47:48;;;;;;;;;;;;;;;24.44;40.74;99008.87;68010;1275;1016815;-65
2024/04/06 09:50:50;;;;;;;;;;;;;;;24.34;40.27;99012.20;68002;1275;1016240;-65
2024/04/06 09:53:53;;;;;;;;;;;;;;;24.26;40.49;99008.73;67965;1275;1016248;-65
2024/04/06 09:56:55;;;;;;;;;;;;;;;24.26;40.62;99010.04;68019;1275;1016484;-64
2024/04/06 09:59:57;;;;;;;;;;;;;;;24.29;40.36;99016.15;68025;1275;1016459;-65
2024/04/06 10:03:00;;;;;;;;;;;;;;;24.37;40.16;99003.30;67980;1275;1016496;-65
2024/04/06 10:06:02;;;;;;;;;;;;;;;24.65;39.26;99003.11;67948;1275;1016034;-65
2024/04/06 10:09:05;;;;;;;;;;;;;;;24.96;38.15;98999.59;67985;1275;1016326;-65
2024/04/06 10:12:08;;;;;;;;;;;;;;;24.68;37.81;98994.39;68001;1275;1016187;-64
2024/04/06 10:15:10;;;;;;;;;;;;;;;24.95;38.85;98988.20;67978;1275;1016178;-65
2024/04/06 10:18:13;;;;;;;;;;;;;;;25.06;37.50;99001.69;67965;1275;1016044;-65
2024/04/06 10:21:16;;;;;;;;;;;;;;;24.93;37.26;99002.89;68004;1275;1016081;-64
2024/04/06 10:24:19;;;;;;;;;;;;;;;24.88;37.54;99003.88;68016;1275;1016453;-65
2024/04/06 10:27:22;;;;;;;;;;;;;;;24.82;37.25;99006.33;67959;1274;1016145;-65
2024/04/06 10:30:24;;;;;;;;;;;;;;;24.66;36.74;99002.84;68000;1275;1018533;-65
2024/04/06 10:33:26;;;;;;;;;;;;;;;24.47;38.08;99009.09;67952;1275;1016278;-65
2024/04/06 10:36:29;;;;;;;;;;;;;;;24.47;38.05;99000.85;67967;1275;1016161;-65
2024/04/06 10:39:32;;;;;;;;;;;;;;;24.44;37.52;98997.16;67982;1275;1016510;-64
2024/04/06 10:42:34;;;;;;;;;;;;;;;24.55;37.67;98999.33;67920;1275;1016440;-64
2024/04/06 10:45:36;;;;;;;;;;;;;;;24.63;37.18;98991.93;67924;1275;1016276;-65
2024/04/06 10:48:39;;;;;;;;;;;;;;;24.63;36.94;98995.25;68210;1275;1016407;-61
2024/04/06 10:51:41;;;;;;;;;;;;;;;24.68;37.51;98996.04;67890;1275;1016439;-66
2024/04/06 10:54:43;;;;;;;;;;;;;;;25.06;38.21;98987.38;67860;1276;1016518;-60
2024/04/06 10:57:46;;;;;;;;;;;;;;;25.48;36.80;98988.11;67900;1276;1016469;-63
2024/04/06 11:00:49;;;;;;;;;;;;;;;25.58;36.65;98988.35;67912;1275;1016272;-65
2024/04/06 11:03:52;;;;;;;;;;;;;;;25.45;36.30;98987.42;67912;1275;1016414;-65
2024/04/06 11:06:54;;;;;;;;;;;;;;;25.39;36.24;98990.96;68009;1275;1016441;-65
2024/04/06 11:09:56;;;;;;;;;;;;;;;25.38;36.93;98991.88;67981;1275;1016369;-65
2024/04/06 11:12:59;;;;;;;;;;;;;;;25.43;36.79;98986.02;67995;1275;1016368;-65
2024/04/06 11:16:01;;;;;;;;;;;;;;;25.61;37.23;98981.17;67978;1275;1016946;-65
2024/04/06 11:19:04;;;;;;;;;;;;;;;25.61;36.46;98996.55;68035;1275;1016470;-64
2024/04/06 11:22:08;;;;;;;;;;;;;;;25.57;36.39;98991.52;67982;1275;1016082;-65
2024/04/06 11:25:11;;;;;;;;;;;;;;;25.49;36.66;99001.13;67988;1275;1016433;-65
2024/04/06 11:28:13;;;;;;;;;;;;;;;25.36;35.90;98994.45;67951;1275;1016195;-64
2024/04/06 11:31:19;;;;;;;;;;;;;;;25.32;37.00;98991.46;68039;1275;1016526;-66
2024/04/06 11:34:21;;;;;;;;;;;;;;;25.53;36.62;98988.98;68009;1275;1016894;-65
2024/04/06 11:37:24;;;;;;;;;;;;;;;25.75;36.34;98977.95;68030;1275;1016282;-64
2024/04/06 11:40:27;;;;;;;;;;;;;;;25.97;36.87;98981.07;67972;1275;1016899;-66
2024/04/06 11:43:29;;;;;;;;;;;;;;;26.35;36.42;98979.83;67947;1275;1016487;-65
2024/04/06 11:46:32;;;;;;;;;;;;;;;26.52;35.64;98980.91;68025;1275;1016715;-65
2024/04/06 11:49:35;;;;;;;;;;;;;;;26.20;34.69;98980.83;68039;1275;1016458;-66
2024/04/06 11:52:37;;;;;;;;;;;;;;;25.77;35.46;98986.90;67969;1275;1019434;-65
2024/04/06 11:55:40;;;;;;;;;;;;;;;25.67;35.95;98986.70;68029;1275;1018042;-66
2024/04/06 11:58:42;;;;;;;;;;;;;;;25.31;36.39;99002.44;68023;1275;1016442;-66
2024/04/06 12:01:44;;;;;;;;;;;;;;;25.32;36.40;98993.24;68000;1275;1016438;-65
2024/04/06 12:04:47;;;;;;;;;;;;;;;25.31;36.62;98995.39;67988;1275;1016218;-64
2024/04/06 12:07:49;;;;;;;;;;;;;;;25.40;36.46;99000.34;67998;1275;1016175;-66
2024/04/06 12:10:51;;;;;;;;;;;;;;;25.35;35.98;98999.16;67973;1275;1016354;-65
2024/04/06 12:13:54;;;;;;;;;;;;;;;25.75;36.56;98990.47;68020;1275;1016255;-65
2024/04/06 12:16:56;;;;;;;;;;;;;;;26.40;36.22;98985.29;67985;1275;1016362;-64
2024/04/06 12:19:59;;;;;;;;;;;;;;;26.70;34.93;98986.65;67992;1275;1017965;-65
2024/04/06 12:23:01;;;;;;;;;;;;;;;26.94;35.50;98976.79;67982;1275;1016130;-65
2024/04/06 12:26:04;;;;;;;;;;;;;;;26.70;34.12;98988.27;68042;1275;1016261;-63
2024/04/06 12:29:06;;;;;;;;;;;;;;;26.44;35.80;98979.66;68059;1275;1015795;-66
2024/04/06 12:32:09;;;;;;;;;;;;;;;26.55;34.78;98980.02;68040;1275;1016422;-65
2024/04/06 12:35:11;;;;;;;;;;;;;;;26.52;34.90;98984.38;67975;1275;1016447;-66
2024/04/06 12:38:14;;;;;;;;;;;;;;;26.40;34.92;99000.52;67953;1275;1016194;-65
2024/04/06 12:41:16;;;;;;;;;;;;;;;26.46;34.09;98986.43;68009;1275;1016522;-66
2024/04/06 12:44:18;;;;;;;;;;;;;;;26.59;34.68;98972.73;68008;1275;1016410;-65
2024/04/06 12:47:21;;;;;;;;;;;;;;;26.93;34.22;98972.45;68017;1275;1016441;-66
2024/04/06 12:50:24;;;;;;;;;;;;;;;26.89;33.76;98973.78;67976;1275;1016467;-66
2024/04/06 12:53:27;;;;;;;;;;;;;;;26.59;33.30;98981.55;68007;1275;1016773;-66
2024/04/06 12:56:32;;;;;;;;;;;;;;;26.29;34.01;98978.83;67938;1275;1016478;-65
2024/04/06 12:59:34;;;;;;;;;;;;;;;26.24;33.76;98985.41;68005;1275;1016266;-65
2024/04/06 13:02:37;;;;;;;;;;;;;;;26.28;34.28;98982.13;67990;1275;1016215;-66
2024/04/06 13:05:40;;;;;;;;;;;;;;;26.42;34.27;98985.07;67940;1275;1016491;-65
2024/04/06 13:08:42;;;;;;;;;;;;;;;26.36;33.68;98984.39;67980;1275;1016401;-65
2024/04/06 13:11:45;;;;;;;;;;;;;;;26.47;34.76;98982.14;67971;1275;1016492;-64
2024/04/06 13:14:48;;;;;;;;;;;;;;;26.35;34.32;98999.97;67910;1275;1016937;-65
2024/04/06 13:17:50;;;;;;;;;;;;;;;26.15;34.66;98994.15;67973;1275;1016508;-66
2024/04/06 13:20:53;;;;;;;;;;;;;;;26.05;34.85;98997.30;68016;1275;1016472;-65
2024/04/06 13:23:55;;;;;;;;;;;;;;;25.96;35.01;99001.35;67994;1275;1015998;-65
2024/04/06 13:26:58;;;;;;;;;;;;;;;26.18;34.35;99001.90;67980;1275;1016489;-65
2024/04/06 13:30:00;;;;;;;;;;;;;;;26.46;34.77;99002.36;68011;1275;1016433;-65
2024/04/06 13:33:03;;;;;;;;;;;;;;;26.61;34.90;98997.08;68009;1275;1015969;-65
2024/04/06 13:36:06;;;;;;;;;;;;;;;26.78;34.38;98999.81;67945;1275;1016457;-64
2024/04/06 13:39:11;;;;;;;;;;;;;;;26.78;34.20;98999.73;68007;1275;1016623;-64
2024/04/06 13:42:14;;;;;;;;;;;;;;;26.61;34.33;98997.54;67992;1275;1016097;-64
2024/04/06 13:45:17;;;;;;;;;;;;;;;26.43;34.41;98991.04;68053;1275;1016153;-65
2024/04/06 13:48:20;;;;;;;;;;;;;;;26.37;35.17;98996.31;67977;1275;1018386;-64
2024/04/06 13:51:22;;;;;;;;;;;;;;;26.14;34.99;99004.10;68009;1275;1016401;-64
2024/04/06 13:54:25;;;;;;;;;;;;;;;26.19;34.60;99006.21;68049;1275;1016542;-64
2024/04/06 13:57:27;;;;;;;;;;;;;;;26.17;35.40;99002.15;68021;1275;1016196;-64
2024/04/06 14:00:30;;;;;;;;;;;;;;;26.25;36.30;98999.26;67973;1275;1016388;-65
2024/04/06 14:03:32;;;;;;;;;;;;;;;26.42;35.85;99001.33;68027;1275;1016335;-64
2024/04/06 14:06:35;;;;;;;;;;;;;;;26.34;35.11;99004.14;68061;1275;1016486;-65
2024/04/06 14:09:37;;;;;;;;;;;;;;;26.34;35.01;98998.89;68013;1275;1016786;-64
2024/04/06 14:12:40;;;;;;;;;;;;;;;26.16;34.97;99000.66;68048;1275;1016324;-65
2024/04/06 14:15:43;;;;;;;;;;;;;;;26.17;35.19;98996.81;68000;1275;1016282;-65
2024/04/06 14:18:45;;;;;;;;;;;;;;;26.08;35.43;99001.34;67958;1275;1016535;-64
2024/04/06 14:21:48;;;;;;;;;;;;;;;26.04;35.28;98994.23;68048;1275;1016439;-64
2024/04/06 14:24:50;;;;;;;;;;;;;;;26.07;35.36;98993.35;68064;1275;1016426;-64
2024/04/06 14:27:52;;;;;;;;;;;;;;;26.14;35.34;98992.84;68022;1275;1017722;-64
2024/04/06 14:30:55;;;;;;;;;;;;;;;26.20;35.58;98984.56;68016;1275;1016520;-64
2024/04/06 14:33:57;;;;;;;;;;;;;;;26.25;35.37;98986.84;68031;1275;1016624;-64
2024/04/06 14:36:59;;;;;;;;;;;;;;;26.18;35.28;98985.16;68019;1275;1016475;-65
2024/04/06 14:40:03;;;;;;;;;;;;;;;26.15;35.37;98987.37;68056;1275;1018640;-65
2024/04/06 14:43:05;;;;;;;;;;;;;;;26.15;35.61;98982.69;68082;1275;1016403;-65
2024/04/06 14:46:08;;;;;;;;;;;;;;;26.02;35.24;98983.33;68054;1275;1016412;-65
2024/04/06 14:49:10;;;;;;;;;;;;;;;25.82;35.36;98984.54;68059;1275;1016089;-64
2024/04/06 14:52:12;;;;;;;;;;;;;;;25.86;35.62;98987.60;68047;1275;1016511;-65
2024/04/06 14:55:15;;;;;;;;;;;;;;;25.96;35.93;98985.75;68033;1275;1017459;-64
2024/04/06 14:58:17;;;;;;;;;;;;;;;25.89;35.75;98976.87;67967;1275;1016394;-65
2024/04/06 15:01:20;;;;;;;;;;;;;;;25.74;35.18;98977.64;68082;1275;1016256;-65
2024/04/06 15:04:23;;;;;;;;;;;;;;;25.59;35.29;98989.89;68002;1275;1016501;-65
2024/04/06 15:07:25;;;;;;;;;;;;;;;25.60;35.13;98989.04;68009;1275;1016524;-65
2024/04/06 15:10:28;;;;;;;;;;;;;;;25.78;35.33;98990.05;68047;1275;1016393;-65
2024/04/06 15:13:30;;;;;;;;;;;;;;;25.81;34.76;98993.84;68036;1275;1016429;-65
2024/04/06 15:16:32;;;;;;;;;;;;;;;25.80;34.60;98996.33;68072;1275;1016489;-65
2024/04/06 15:19:34;;;;;;;;;;;;;;;25.78;35.25;98995.10;68021;1275;1016336;-66
2024/04/06 15:22:37;;;;;;;;;;;;;;;25.83;34.60;98994.59;67978;1275;1016496;-64
2024/04/06 15:25:39;;;;;;;;;;;;;;;25.76;34.61;98990.64;67915;1276;1015842;-65
2024/04/06 15:28:42;;;;;;;;;;;;;;;25.73;35.04;98987.43;67949;1276;1016210;-65